Time;durP1;ratioP1;P1;durP2;ratioP2;P2;SDS_P1;SDS_P2;PMS_P1;PMS_P2;Temp;Humidity;BMP_temperature;BMP_pressure;BME280_temperature;BME280_humidity;BME280_pressure;Samples;Min_cycle;Max_cycle;Signal;HPM_P1;HPM_P2
2023/09/30 00:01:00;;;;;;;11.40;5.72;;;13.60;99.90;;;;;;6125949;23;20112;-76
2023/09/30 00:03:26;;;;;;;14.27;6.55;;;13.60;99.90;;;;;;6152003;23;20032;-76
2023/09/30 00:05:51;;;;;;;11.93;5.28;;;13.60;99.90;;;;;;6151713;23;20015;-76
2023/09/30 00:08:17;;;;;;;11.23;5.53;;;13.50;99.90;;;;;;6125806;23;20009;-76
2023/09/30 00:10:42;;;;;;;11.18;6.72;;;13.60;99.90;;;;;;6125276;23;20006;-76
2023/09/30 00:13:08;;;;;;;9.27;5.07;;;13.60;99.90;;;;;;6151801;23;20438;-76
2023/09/30 00:15:34;;;;;;;12.10;5.35;;;13.60;99.90;;;;;;6152277;23;20009;-76
2023/09/30 00:18:01;;;;;;;12.60;6.60;;;13.60;99.90;;;;;;6151623;23;20017;-76
2023/09/30 00:20:27;;;;;;;14.13;7.00;;;13.60;99.90;;;;;;6152154;23;20006;-76
2023/09/30 00:22:53;;;;;;;17.30;6.90;;;13.60;99.90;;;;;;6151489;23;20002;-76
2023/09/30 00:25:18;;;;;;;12.48;5.72;;;13.60;99.90;;;;;;6151550;23;20002;-76
2023/09/30 00:27:44;;;;;;;10.27;6.03;;;13.60;99.90;;;;;;6151306;23;20458;-76
2023/09/30 00:30:10;;;;;;;13.65;7.00;;;13.60;99.90;;;;;;6151837;23;20033;-76
2023/09/30 00:32:35;;;;;;;12.40;6.30;;;13.60;99.90;;;;;;6151653;23;19998;-77
2023/09/30 00:35:02;;;;;;;14.10;6.97;;;13.60;99.90;;;;;;6151599;23;20151;-76
2023/09/30 00:37:28;;;;;;;8.30;5.15;;;13.60;99.90;;;;;;6151928;23;20077;-76
2023/09/30 00:39:53;;;;;;;12.30;6.00;;;13.60;99.90;;;;;;6124785;23;20037;-76
2023/09/30 00:42:20;;;;;;;15.63;6.05;;;13.60;99.90;;;;;;6149787;23;20017;-76
2023/09/30 00:44:46;;;;;;;14.05;6.30;;;13.50;99.90;;;;;;6148072;23;20013;-76
2023/09/30 00:47:14;;;;;;;10.93;6.30;;;13.50;99.90;;;;;;6149399;23;20006;-76
2023/09/30 00:49:42;;;;;;;13.23;6.20;;;13.50;99.90;;;;;;6150085;23;20450;-76
2023/09/30 00:52:07;;;;;;;14.18;5.70;;;13.40;99.90;;;;;;6125279;23;20006;-76
2023/09/30 00:54:35;;;;;;;15.30;7.05;;;13.50;99.90;;;;;;6125113;23;20432;-76
2023/09/30 00:57:01;;;;;;;14.65;6.88;;;13.40;99.90;;;;;;6125012;23;20020;-76
2023/09/30 00:59:30;;;;;;;9.50;6.10;;;13.40;99.90;;;;;;6151994;23;19998;-76
2023/09/30 01:01:58;;;;;;;16.08;5.43;;;13.40;99.90;;;;;;6124941;23;20009;-76
2023/09/30 01:04:26;;;;;;;12.32;6.30;;;13.40;99.90;;;;;;6151663;23;20368;-76
2023/09/30 01:06:51;;;;;;;16.27;6.53;;;13.30;99.90;;;;;;6150230;23;20006;-76
2023/09/30 01:09:17;;;;;;;16.50;6.90;;;13.30;99.90;;;;;;6151509;23;20059;-76
2023/09/30 01:11:44;;;;;;;16.25;7.82;;;13.30;99.90;;;;;;6124096;23;20056;-77
2023/09/30 01:14:30;;;;;;;11.70;6.93;;;13.30;99.90;;;;;;6150571;23;20081;-76
2023/09/30 01:16:57;;;;;;;13.00;6.55;;;13.30;99.90;;;;;;6150958;23;20005;-77
2023/09/30 01:19:24;;;;;;;13.55;6.97;;;13.20;99.90;;;;;;6151376;23;20331;-76
2023/09/30 01:21:54;;;;;;;12.02;6.55;;;13.20;99.90;;;;;;6149998;23;20371;-76
2023/09/30 01:24:20;;;;;;;12.50;7.15;;;13.20;99.90;;;;;;6151145;23;20001;-76
2023/09/30 01:26:45;;;;;;;13.85;6.88;;;13.20;99.90;;;;;;6149424;23;20010;-76
2023/09/30 01:29:11;;;;;;;12.88;5.13;;;13.20;99.90;;;;;;6150323;23;20006;-76
2023/09/30 01:31:39;;;;;;;17.25;5.93;;;13.10;99.90;;;;;;6150320;23;19998;-76
2023/09/30 01:34:05;;;;;;;9.25;5.57;;;13.10;99.90;;;;;;6149333;23;20144;-76
2023/09/30 01:36:31;;;;;;;12.15;6.15;;;13.10;99.90;;;;;;6150006;23;20328;-76
2023/09/30 01:38:57;;;;;;;9.93;5.45;;;13.00;99.90;;;;;;6150771;23;20005;-76
2023/09/30 01:41:23;;;;;;;9.32;5.90;;;13.00;99.90;;;;;;6150368;23;20495;-76
2023/09/30 01:43:49;;;;;;;8.95;5.15;;;13.00;99.90;;;;;;6123750;23;20045;-76
2023/09/30 01:46:15;;;;;;;11.43;5.78;;;12.90;99.90;;;;;;6150390;23;20005;-76
2023/09/30 01:48:40;;;;;;;14.27;6.55;;;13.00;99.90;;;;;;6149429;23;20067;-76
2023/09/30 01:51:06;;;;;;;11.02;6.32;;;13.00;99.90;;;;;;6149550;23;20100;-76
2023/09/30 01:53:32;;;;;;;15.65;6.55;;;12.90;99.90;;;;;;6150794;23;19997;-77
2023/09/30 01:55:58;;;;;;;11.27;5.50;;;12.90;99.90;;;;;;6150904;23;20010;-76
2023/09/30 01:58:25;;;;;;;15.57;6.43;;;12.90;99.90;;;;;;6151244;23;20005;-76
2023/09/30 02:00:51;;;;;;;11.38;6.82;;;12.80;99.90;;;;;;6151054;23;20033;-76
2023/09/30 02:03:17;;;;;;;12.98;6.15;;;12.80;99.90;;;;;;6151011;23;20012;-76
2023/09/30 02:05:42;;;;;;;12.98;7.18;;;12.80;99.90;;;;;;6149753;23;20005;-76
2023/09/30 02:08:08;;;;;;;14.95;7.68;;;12.80;99.90;;;;;;6151047;23;20013;-76
2023/09/30 02:10:34;;;;;;;13.57;6.80;;;12.80;99.90;;;;;;6125325;23;19998;-76
2023/09/30 02:13:00;;;;;;;15.32;7.47;;;12.80;99.90;;;;;;6150809;23;20029;-76
2023/09/30 02:15:25;;;;;;;19.08;8.57;;;12.80;99.90;;;;;;6151252;23;20009;-76
2023/09/30 02:17:51;;;;;;;17.65;8.60;;;12.80;99.90;;;;;;6150786;23;20412;-76
2023/09/30 02:20:21;;;;;;;15.30;7.05;;;12.80;99.90;;;;;;6125059;23;20010;-76
2023/09/30 02:22:48;;;;;;;15.02;8.10;;;12.80;99.90;;;;;;6152251;23;20052;-77
2023/09/30 02:25:14;;;;;;;15.27;7.90;;;12.80;99.90;;;;;;6152128;23;20432;-75
2023/09/30 02:27:41;;;;;;;16.83;8.00;;;12.80;99.90;;;;;;6125244;23;20002;-76
2023/09/30 02:30:08;;;;;;;10.93;7.45;;;12.80;99.90;;;;;;6149190;23;20006;-76
2023/09/30 02:32:33;;;;;;;15.20;8.85;;;12.80;99.90;;;;;;6149510;23;19997;-76
2023/09/30 02:34:59;;;;;;;13.70;8.55;;;12.90;99.90;;;;;;6148808;23;20008;-77
2023/09/30 02:37:25;;;;;;;16.25;8.15;;;12.90;99.90;;;;;;6149770;23;20009;-77
2023/09/30 02:39:51;;;;;;;12.40;7.78;;;13.00;99.90;;;;;;6149421;23;20002;-77
2023/09/30 02:42:16;;;;;;;11.40;6.85;;;13.00;99.90;;;;;;6123619;23;20408;-77
2023/09/30 02:44:42;;;;;;;15.38;8.07;;;13.10;99.90;;;;;;6150909;23;20013;-77
2023/09/30 02:47:08;;;;;;;12.50;8.63;;;13.10;99.90;;;;;;6151744;23;20148;-77
2023/09/30 02:49:34;;;;;;;14.98;9.65;;;13.20;99.90;;;;;;6151702;23;20008;-77
2023/09/30 02:51:59;;;;;;;12.82;9.40;;;13.30;99.90;;;;;;6151676;23;20006;-77
2023/09/30 02:54:25;;;;;;;13.65;9.52;;;13.30;99.90;;;;;;6151172;23;20489;-77
2023/09/30 02:56:52;;;;;;;12.60;8.77;;;13.30;99.90;;;;;;6125366;23;20054;-77
2023/09/30 02:59:18;;;;;;;15.07;7.90;;;13.30;99.90;;;;;;6152179;23;20026;-77
2023/09/30 03:01:44;;;;;;;14.32;9.10;;;13.40;99.90;;;;;;6125545;23;20009;-77
2023/09/30 03:04:12;;;;;;;12.35;8.65;;;13.50;99.90;;;;;;6150978;23;20395;-77
2023/09/30 03:06:38;;;;;;;15.77;8.52;;;13.50;99.90;;;;;;6151441;23;20083;-77
2023/09/30 03:09:04;;;;;;;14.30;9.57;;;13.50;99.90;;;;;;6151326;23;20009;-77
2023/09/30 03:11:34;;;;;;;14.35;9.40;;;13.50;99.90;;;;;;6125867;23;20006;-77
2023/09/30 03:13:59;;;;;;;15.57;10.30;;;13.60;99.90;;;;;;6125430;23;20005;-77
2023/09/30 03:16:25;;;;;;;16.58;9.77;;;13.60;99.90;;;;;;6151710;23;20013;-77
2023/09/30 03:18:51;;;;;;;13.23;9.23;;;13.60;99.90;;;;;;6124636;23;20037;-77
2023/09/30 03:21:17;;;;;;;13.57;8.48;;;13.60;99.90;;;;;;6125486;23;20089;-77
2023/09/30 03:23:43;;;;;;;11.25;7.95;;;13.60;99.90;;;;;;6151751;23;20010;-77
2023/09/30 03:26:10;;;;;;;14.43;9.00;;;13.60;99.90;;;;;;6151102;23;20013;-77
2023/09/30 03:28:37;;;;;;;21.08;9.32;;;13.60;99.90;;;;;;6125623;23;20005;-77
2023/09/30 03:31:04;;;;;;;12.82;9.45;;;13.50;99.90;;;;;;6150853;23;20006;-78
2023/09/30 03:33:31;;;;;;;15.57;9.52;;;13.50;99.90;;;;;;6151215;23;20001;-77
2023/09/30 03:35:58;;;;;;;16.05;10.18;;;13.50;99.90;;;;;;6151154;23;20013;-77
2023/09/30 03:38:23;;;;;;;15.38;10.40;;;13.50;99.90;;;;;;6151708;23;20435;-77
2023/09/30 03:40:50;;;;;;;15.65;10.38;;;13.40;99.90;;;;;;6151485;23;20012;-77
2023/09/30 03:43:16;;;;;;;16.10;9.77;;;13.40;99.90;;;;;;6151834;23;20006;-77
2023/09/30 03:45:41;;;;;;;13.93;10.63;;;13.40;99.90;;;;;;6147667;23;20021;-77
2023/09/30 03:48:07;;;;;;;12.45;8.68;;;13.40;99.90;;;;;;6150804;23;20060;-77
2023/09/30 03:50:33;;;;;;;21.90;9.48;;;13.40;99.90;;;;;;6151853;23;20001;-78
2023/09/30 03:53:09;;;;;;;16.15;10.60;;;13.40;99.90;;;;;;6151221;23;20064;-78
2023/09/30 03:55:34;;;;;;;13.07;10.75;;;13.30;99.90;;;;;;6151864;23;20009;-77
2023/09/30 03:58:00;;;;;;;16.90;11.40;;;13.30;99.90;;;;;;6151537;23;20006;-77
2023/09/30 04:00:28;;;;;;;17.38;11.30;;;13.30;99.90;;;;;;6149659;23;20399;-78
2023/09/30 04:02:54;;;;;;;16.88;10.38;;;13.30;99.90;;;;;;6150532;23;20320;-77
2023/09/30 04:05:26;;;;;;;17.17;10.80;;;13.40;99.90;;;;;;6151191;23;20005;-77
2023/09/30 04:07:51;;;;;;;13.77;10.82;;;13.30;99.90;;;;;;6150982;23;20001;-78
2023/09/30 04:10:17;;;;;;;19.48;12.55;;;13.30;99.90;;;;;;6151031;23;19998;-76
2023/09/30 04:12:43;;;;;;;14.88;12.05;;;13.30;99.90;;;;;;6149933;23;20018;-76
2023/09/30 04:15:11;;;;;;;18.95;13.93;;;13.30;99.90;;;;;;6150797;23;20009;-76
2023/09/30 04:17:38;;;;;;;18.35;11.73;;;13.30;99.90;;;;;;6150972;23;20009;-76
2023/09/30 04:20:08;;;;;;;20.75;11.93;;;13.30;99.90;;;;;;6150758;23;20076;-76
2023/09/30 04:22:35;;;;;;;15.85;11.05;;;13.30;99.90;;;;;;6151306;23;20428;-76
2023/09/30 04:25:00;;;;;;;19.33;12.30;;;13.30;99.90;;;;;;6149031;23;20033;-76
2023/09/30 04:27:26;;;;;;;20.73;12.98;;;13.30;99.90;;;;;;6151757;23;20008;-76
2023/09/30 04:29:53;;;;;;;21.48;13.57;;;13.30;99.90;;;;;;6148355;23;20013;-76
2023/09/30 04:32:19;;;;;;;19.10;13.48;;;13.30;99.90;;;;;;6151280;23;20053;-76
2023/09/30 04:34:46;;;;;;;15.48;11.93;;;13.30;99.90;;;;;;6150861;23;20002;-77
2023/09/30 04:37:13;;;;;;;18.98;14.32;;;13.30;99.90;;;;;;6150978;23;20002;-77
2023/09/30 04:39:39;;;;;;;18.02;13.00;;;13.30;99.90;;;;;;6150743;23;20080;-76
2023/09/30 04:42:05;;;;;;;17.50;13.40;;;13.30;99.90;;;;;;6150490;23;20423;-76
2023/09/30 04:44:31;;;;;;;19.27;12.57;;;13.30;99.90;;;;;;6148687;23;20017;-76
2023/09/30 04:46:57;;;;;;;14.85;12.82;;;13.30;99.90;;;;;;6150410;23;20100;-77
2023/09/30 04:49:23;;;;;;;20.25;14.45;;;13.30;99.90;;;;;;6150914;23;19997;-76
2023/09/30 04:51:49;;;;;;;18.33;13.65;;;13.30;99.90;;;;;;6150991;23;20058;-76
2023/09/30 04:54:15;;;;;;;16.67;11.98;;;13.40;99.90;;;;;;6150522;23;20362;-76
2023/09/30 04:56:41;;;;;;;18.42;14.25;;;13.40;99.90;;;;;;6150952;23;20012;-77
2023/09/30 04:59:06;;;;;;;20.88;15.98;;;13.40;99.90;;;;;;6149745;23;20383;-76
2023/09/30 05:01:32;;;;;;;28.08;24.00;;;13.30;99.90;;;;;;6149435;23;20032;-76
2023/09/30 05:03:57;;;;;;;22.77;20.23;;;13.30;99.90;;;;;;6150332;23;20030;-77
2023/09/30 05:06:23;;;;;;;22.95;18.38;;;13.30;99.90;;;;;;6149914;23;20440;-77
2023/09/30 05:08:49;;;;;;;23.33;17.02;;;13.30;99.90;;;;;;6146886;23;20005;-77
2023/09/30 05:11:15;;;;;;;21.73;15.57;;;13.30;99.90;;;;;;6145112;23;20005;-77
2023/09/30 05:13:41;;;;;;;20.23;12.90;;;13.30;99.90;;;;;;6144969;23;20415;-77
2023/09/30 05:16:09;;;;;;;20.23;13.75;;;13.30;99.90;;;;;;6147216;23;20005;-76
2023/09/30 05:18:34;;;;;;;20.65;13.77;;;13.30;99.90;;;;;;6148116;23;20013;-77
2023/09/30 05:21:00;;;;;;;19.67;13.88;;;13.30;99.90;;;;;;6149945;23;20060;-76
2023/09/30 05:23:26;;;;;;;16.73;12.20;;;13.30;99.90;;;;;;6150330;23;20010;-76
2023/09/30 05:25:52;;;;;;;16.67;11.52;;;13.20;99.90;;;;;;6149795;23;20442;-77
2023/09/30 05:28:20;;;;;;;21.23;15.63;;;13.30;99.90;;;;;;6147974;23;20002;-77
2023/09/30 05:30:45;;;;;;;15.38;12.52;;;13.40;99.90;;;;;;6147879;23;20010;-76
2023/09/30 05:33:14;;;;;;;18.33;12.98;;;13.30;99.90;;;;;;6149906;23;20013;-77
2023/09/30 05:35:43;;;;;;;22.10;16.27;;;13.40;99.90;;;;;;6150425;23;20424;-77
2023/09/30 05:38:09;;;;;;;17.70;14.88;;;13.40;99.90;;;;;;6148341;23;20033;-76
2023/09/30 05:40:35;;;;;;;21.75;14.90;;;13.30;99.90;;;;;;6149016;23;20010;-77
2023/09/30 05:43:01;;;;;;;20.83;16.20;;;13.30;99.90;;;;;;6148143;23;20005;-77
2023/09/30 05:45:35;;;;;;;20.48;16.58;;;13.30;99.90;;;;;;6150433;23;20344;-77
2023/09/30 05:48:07;;;;;;;16.55;13.35;;;13.30;99.90;;;;;;6150177;23;20069;-76
2023/09/30 05:50:36;;;;;;;16.38;14.52;;;13.20;99.90;;;;;;6124458;23;19998;-77
2023/09/30 05:53:02;;;;;;;17.75;15.30;;;13.20;99.90;;;;;;6150183;23;20028;-76
2023/09/30 05:55:27;;;;;;;27.85;16.17;;;13.20;99.90;;;;;;6151693;23;20010;-76
2023/09/30 05:57:53;;;;;;;20.80;15.85;;;13.10;99.90;;;;;;6125673;23;20029;-77
2023/09/30 06:00:22;;;;;;;25.15;17.55;;;13.10;99.90;;;;;;6126248;23;20033;-77
2023/09/30 06:02:49;;;;;;;20.30;14.73;;;13.10;99.90;;;;;;6152318;23;20435;-77
2023/09/30 06:05:22;;;;;;;13.70;12.30;;;13.10;99.90;;;;;;6151898;23;20204;-77
2023/09/30 06:07:48;;;;;;;19.37;14.60;;;13.10;99.90;;;;;;6152419;23;20442;-77
2023/09/30 06:10:18;;;;;;;17.92;13.40;;;13.00;99.90;;;;;;6125768;23;20005;-77
2023/09/30 06:12:47;;;;;;;15.60;13.43;;;13.00;99.90;;;;;;6152206;23;20012;-76
2023/09/30 06:15:21;;;;;;;19.20;14.35;;;13.00;99.90;;;;;;6152090;23;20005;-77
2023/09/30 06:17:47;;;;;;;;;;;13.00;99.90;;;;;;6152734;23;20006;-76
2023/09/30 06:20:17;;;;;;;16.15;12.30;;;12.90;99.90;;;;;;6151711;23;20226;-77
2023/09/30 06:22:45;;;;;;;15.13;13.52;;;12.90;99.90;;;;;;6152328;23;20055;-76
2023/09/30 06:25:12;;;;;;;16.25;14.07;;;12.90;99.90;;;;;;6151816;23;20169;-77
2023/09/30 06:27:38;;;;;;;17.55;14.45;;;12.90;99.90;;;;;;6151483;23;20002;-77
2023/09/30 06:30:05;;;;;;;17.42;15.50;;;12.90;99.90;;;;;;6151639;23;20374;-76
2023/09/30 06:32:30;;;;;;;21.42;15.02;;;12.90;99.90;;;;;;6125303;23;20293;-76
2023/09/30 06:34:56;;;;;;;16.55;14.43;;;12.90;99.90;;;;;;6151620;23;20005;-76
2023/09/30 06:37:21;;;;;;;18.75;15.93;;;13.00;99.90;;;;;;6151942;23;20012;-76
2023/09/30 06:39:48;;;;;;;18.63;14.98;;;13.00;99.90;;;;;;6152083;23;20005;-76
2023/09/30 06:42:13;;;;;;;19.17;14.30;;;13.00;99.90;;;;;;6124900;23;20001;-76
2023/09/30 06:44:39;;;;;;;20.58;15.13;;;13.00;99.90;;;;;;6151786;23;20021;-76
2023/09/30 06:47:05;;;;;;;20.20;17.58;;;13.10;99.90;;;;;;6151265;23;20009;-76
2023/09/30 06:49:34;;;;;;;19.95;16.90;;;13.10;99.90;;;;;;6126002;23;20064;-77
2023/09/30 06:51:59;;;;;;;17.98;14.57;;;13.10;99.90;;;;;;6125556;23;20060;-81
2023/09/30 06:54:25;;;;;;;19.08;15.63;;;13.10;99.90;;;;;;6126168;23;20009;-79
2023/09/30 06:56:50;;;;;;;18.23;15.40;;;13.10;99.90;;;;;;6150819;23;20008;-80
2023/09/30 06:59:16;;;;;;;21.33;15.10;;;13.20;99.90;;;;;;6151775;23;20006;-79
2023/09/30 07:01:41;;;;;;;21.30;14.13;;;13.30;99.90;;;;;;6151812;23;20080;-80
2023/09/30 07:04:07;;;;;;;20.55;15.27;;;13.30;99.90;;;;;;6151328;23;20004;-79
2023/09/30 07:06:33;;;;;;;20.17;16.17;;;13.30;99.90;;;;;;6151813;23;20412;-79
2023/09/30 07:08:58;;;;;;;17.35;14.13;;;13.30;99.90;;;;;;6151225;23;20001;-79
2023/09/30 07:11:33;;;;;;;20.20;15.90;;;13.40;99.90;;;;;;6124924;23;20009;-79
2023/09/30 07:13:59;;;;;;;24.17;16.42;;;13.50;99.90;;;;;;6151430;23;19998;-79
2023/09/30 07:16:25;;;;;;;23.90;15.52;;;13.50;99.90;;;;;;6125381;23;20017;-79
2023/09/30 07:18:50;;;;;;;23.90;16.15;;;13.50;99.90;;;;;;6151553;23;20005;-79
2023/09/30 07:21:16;;;;;;;21.50;14.75;;;13.60;99.90;;;;;;6151376;23;20010;-79
2023/09/30 07:23:42;;;;;;;22.58;16.17;;;13.70;99.90;;;;;;6125630;23;20032;-80
2023/09/30 07:26:08;;;;;;;22.10;16.40;;;13.70;99.90;;;;;;6150799;23;20080;-80
2023/09/30 07:28:34;;;;;;;20.65;15.02;;;13.80;99.90;;;;;;6151953;23;20100;-79
2023/09/30 07:30:59;;;;;;;20.65;15.20;;;13.80;99.90;;;;;;6125148;23;20002;-75
2023/09/30 07:33:25;;;;;;;19.52;14.82;;;13.90;99.90;;;;;;6151782;23;20009;-80
2023/09/30 07:35:51;;;;;;;18.60;15.52;;;13.90;99.90;;;;;;6151201;23;20001;-80
2023/09/30 07:38:17;;;;;;;22.38;14.95;;;14.00;99.90;;;;;;6151562;23;20483;-80
2023/09/30 07:40:43;;;;;;;22.27;15.70;;;14.00;99.90;;;;;;6151117;23;20044;-80
2023/09/30 07:43:08;;;;;;;22.42;14.95;;;14.00;99.90;;;;;;6151571;23;20087;-80
2023/09/30 07:45:34;;;;;;;23.38;15.70;;;14.00;99.90;;;;;;6151171;23;20024;-80
2023/09/30 07:48:03;;;;;;;26.25;16.65;;;14.10;99.90;;;;;;6181354;23;20118;-79
2023/09/30 07:50:28;;;;;;;22.35;16.30;;;14.20;99.90;;;;;;6181329;23;20498;-79
2023/09/30 07:52:54;;;;;;;24.60;17.38;;;14.20;99.90;;;;;;6180726;23;20029;-79
2023/09/30 07:55:19;;;;;;;20.27;15.55;;;14.30;99.90;;;;;;6180760;23;20331;-79
2023/09/30 07:57:45;;;;;;;23.35;15.73;;;14.30;99.90;;;;;;6181272;23;20477;-79
2023/09/30 08:00:15;;;;;;;26.17;17.02;;;14.40;99.90;;;;;;6154204;23;20088;-79
2023/09/30 08:02:41;;;;;;;23.88;15.13;;;14.40;99.90;;;;;;6181108;23;20466;-79
2023/09/30 08:05:07;;;;;;;20.92;15.52;;;14.40;99.90;;;;;;6180335;23;20327;-78
2023/09/30 08:07:34;;;;;;;23.17;16.42;;;14.50;99.90;;;;;;6179998;23;20001;-80
2023/09/30 08:09:59;;;;;;;25.65;17.00;;;14.60;99.90;;;;;;6154176;23;20012;-79
2023/09/30 08:12:25;;;;;;;27.58;17.70;;;14.60;99.90;;;;;;6181139;23;20478;-79
2023/09/30 08:14:51;;;;;;;23.70;16.73;;;14.70;99.90;;;;;;6180791;23;20423;-79
2023/09/30 08:17:17;;;;;;;26.10;16.13;;;14.70;99.90;;;;;;6180282;23;20009;-80
2023/09/30 08:19:44;;;;;;;25.40;17.35;;;14.80;99.90;;;;;;6180810;23;20009;-79
2023/09/30 08:22:09;;;;;;;22.40;16.98;;;14.80;99.90;;;;;;6179873;23;20343;-78
2023/09/30 08:24:35;;;;;;;25.10;17.15;;;14.90;99.90;;;;;;6180879;23;20005;-79
2023/09/30 08:27:01;;;;;;;33.13;17.63;;;15.00;99.90;;;;;;6180664;23;20009;-78
2023/09/30 08:29:27;;;;;;;23.63;16.10;;;15.00;99.90;;;;;;6180727;23;19993;-78
2023/09/30 08:31:52;;;;;;;26.75;17.73;;;15.10;99.90;;;;;;6180714;23;20080;-78
2023/09/30 08:34:21;;;;;;;23.90;15.75;;;15.20;99.90;;;;;;6180073;23;20005;-78
2023/09/30 08:36:46;;;;;;;27.92;16.48;;;15.20;99.90;;;;;;6180070;23;20001;-78
2023/09/30 08:39:12;;;;;;;24.85;15.88;;;15.30;99.90;;;;;;6153766;23;20015;-78
2023/09/30 08:41:38;;;;;;;23.80;16.98;;;15.40;99.90;;;;;;6180684;23;20025;-78
2023/09/30 08:44:04;;;;;;;19.40;15.05;;;15.30;99.90;;;;;;6151737;23;20028;-78
2023/09/30 08:46:34;;;;;;;23.67;15.93;;;15.40;99.90;;;;;;6179612;23;20005;-78
2023/09/30 08:49:04;;;;;;;25.10;15.98;;;15.50;99.90;;;;;;6153678;23;20029;-78
2023/09/30 08:51:31;;;;;;;18.13;14.45;;;15.50;99.90;;;;;;6153491;23;20738;-78
2023/09/30 08:53:57;;;;;;;21.50;16.00;;;15.60;99.90;;;;;;6153392;23;20008;-78
2023/09/30 08:56:26;;;;;;;23.27;16.65;;;15.60;99.90;;;;;;6180403;23;20013;-78
2023/09/30 08:59:00;;;;;;;19.73;15.32;;;15.70;99.90;;;;;;6180498;23;20005;-78
2023/09/30 09:01:27;;;;;;;23.23;14.70;;;15.70;99.90;;;;;;6180546;23;20064;-78
2023/09/30 09:03:53;;;;;;;18.35;13.85;;;15.80;99.90;;;;;;6180199;23;20001;-78
2023/09/30 09:06:20;;;;;;;25.83;15.88;;;15.90;99.90;;;;;;6179734;23;20092;-79
2023/09/30 09:08:47;;;;;;;23.50;13.75;;;15.90;99.90;;;;;;6154041;23;20000;-79
2023/09/30 09:11:14;;;;;;;21.77;13.70;;;15.90;99.90;;;;;;6180120;23;19997;-78
2023/09/30 09:13:50;;;;;;;21.85;13.52;;;16.10;99.90;;;;;;6180092;23;20001;-78
2023/09/30 09:16:20;;;;;;;19.75;14.13;;;16.10;99.90;;;;;;6153373;23;20021;-78
2023/09/30 09:18:47;;;;;;;19.35;13.27;;;16.20;99.90;;;;;;6153911;23;20048;-78
2023/09/30 09:21:22;;;;;;;16.23;12.50;;;16.20;99.90;;;;;;6179489;23;20005;-77
2023/09/30 09:23:50;;;;;;;23.10;13.60;;;16.30;99.90;;;;;;6180123;23;20009;-78
2023/09/30 09:26:18;;;;;;;19.83;13.25;;;16.40;99.90;;;;;;6179535;23;20009;-78
2023/09/30 09:28:44;;;;;;;20.33;12.82;;;16.50;99.90;;;;;;6153131;23;20005;-78
2023/09/30 09:31:36;;;;;;;24.42;13.73;;;16.60;99.90;;;;;;6179977;23;20068;-78
2023/09/30 09:34:14;;;;;;;19.33;13.57;;;16.60;99.90;;;;;;6153620;23;20009;-78
2023/09/30 09:36:44;;;;;;;23.10;13.00;;;16.80;99.90;;;;;;6153063;23;20426;-79
2023/09/30 09:39:13;;;;;;;18.00;13.18;;;16.80;99.90;;;;;;6153117;23;20020;-79
2023/09/30 09:41:52;;;;;;;17.17;12.43;;;16.90;99.90;;;;;;6180080;23;20012;-77
2023/09/30 09:44:20;;;;;;;17.95;11.95;;;16.90;99.90;;;;;;6168328;23;20020;-79
2023/09/30 09:46:47;;;;;;;17.63;12.15;;;17.10;99.90;;;;;;6123700;23;20391;-78
2023/09/30 10:41:02;;;;;;;13.38;7.18;;;18.40;99.90;;;;;;6205674;22;20019;-78
2023/09/30 10:43:32;;;;;;;13.05;8.00;;;18.50;99.90;;;;;;6212742;23;20027;-79
2023/09/30 10:45:58;;;;;;;15.10;8.05;;;18.60;99.90;;;;;;6213722;23;20047;-79
2023/09/30 10:48:36;;;;;;;12.82;6.95;;;18.80;99.90;;;;;;6240442;23;19996;-79
2023/09/30 10:51:15;;;;;;;13.85;6.45;;;18.90;99.90;;;;;;6240503;23;20007;-79
2023/09/30 10:53:59;;;;;;;12.65;6.00;;;19.00;99.90;;;;;;6214050;23;20004;-78
2023/09/30 10:56:33;;;;;;;10.48;5.57;;;19.20;99.90;;;;;;6241824;23;20000;-79
2023/09/30 10:58:59;;;;;;;12.00;5.47;;;19.30;99.90;;;;;;6215040;23;20035;-78
2023/09/30 11:01:25;;;;;;;13.65;6.38;;;19.40;99.90;;;;;;6241827;23;19997;-78
2023/09/30 11:04:02;;;;;;;11.75;5.63;;;19.60;99.90;;;;;;6241920;23;20075;-77
2023/09/30 11:06:27;;;;;;;10.05;5.47;;;19.70;99.90;;;;;;6215619;23;20020;-79
2023/09/30 11:08:55;;;;;;;14.38;5.78;;;19.80;99.90;;;;;;6242026;23;20006;-78
2023/09/30 11:12:00;;;;;;;11.15;4.45;;;19.90;99.90;;;;;;6242570;23;20289;-79
2023/09/30 11:14:30;;;;;;;9.65;5.00;;;19.90;99.90;;;;;;6215316;23;20079;-79
2023/09/30 11:17:06;;;;;;;12.88;5.63;;;20.00;99.90;;;;;;6214459;23;20015;-78
2023/09/30 11:19:37;;;;;;;8.95;3.83;;;20.10;99.90;;;;;;6242275;23;20003;-80
2023/09/30 11:22:03;;;;;;;7.50;3.50;;;20.10;99.90;;;;;;6214420;23;20000;-79
2023/09/30 11:24:29;;;;;;;8.45;3.65;;;20.10;99.90;;;;;;6242059;23;20007;-79
2023/09/30 11:26:58;;;;;;;8.48;3.58;;;20.20;99.90;;;;;;6241730;23;20035;-77
2023/09/30 11:29:24;;;;;;;8.80;3.55;;;20.20;99.90;;;;;;6215168;23;20027;-79
2023/09/30 11:31:53;;;;;;;10.90;4.00;;;20.20;99.30;;;;;;6214171;23;20457;-78
2023/09/30 11:34:19;;;;;;;8.70;3.38;;;20.20;98.60;;;;;;6241581;23;19992;-78
2023/09/30 11:36:52;;;;;;;9.23;3.05;;;20.20;98.30;;;;;;6215037;23;20008;-78
2023/09/30 11:39:27;;;;;;;7.93;3.05;;;20.10;98.10;;;;;;6241631;23;20069;-79
2023/09/30 11:41:56;;;;;;;9.00;2.78;;;20.10;98.10;;;;;;6241391;23;20073;-79
2023/09/30 11:44:22;;;;;;;10.18;2.95;;;20.00;98.00;;;;;;6241240;23;20012;-79
2023/09/30 11:46:55;;;;;;;8.07;3.45;;;19.90;97.80;;;;;;6241213;23;20012;-79
2023/09/30 11:49:40;;;;;;;9.20;3.58;;;20.00;97.60;;;;;;6215475;23;20024;-78
2023/09/30 11:52:11;;;;;;;8.40;2.80;;;20.00;97.60;;;;;;6241291;23;20007;-78
2023/09/30 11:54:43;;;;;;;7.68;1.92;;;20.00;97.20;;;;;;6214896;23;20035;-78
2023/09/30 11:57:09;;;;;;;8.48;2.03;;;20.10;97.30;;;;;;6241181;23;20694;-78
2023/09/30 11:59:36;;;;;;;10.15;2.58;;;20.10;97.20;;;;;;6214462;23;20469;-79
2023/09/30 12:02:03;;;;;;;8.05;2.92;;;20.20;96.80;;;;;;6240913;23;20049;-79
2023/09/30 12:04:29;;;;;;;11.18;2.67;;;20.20;96.20;;;;;;6241682;23;20003;-78
2023/09/30 12:06:55;;;;;;;8.15;2.90;;;20.30;96.00;;;;;;6214479;23;20016;-78
2023/09/30 12:09:26;;;;;;;9.90;3.90;;;20.20;96.00;;;;;;6241335;23;20094;-78
2023/09/30 12:11:53;;;;;;;9.50;2.90;;;20.20;95.90;;;;;;6214253;23;20000;-78
2023/09/30 12:14:20;;;;;;;12.13;2.83;;;20.20;96.10;;;;;;6240916;23;20270;-79
2023/09/30 12:16:47;;;;;;;5.22;2.63;;;20.20;96.00;;;;;;6214541;23;20004;-78
2023/09/30 12:19:15;;;;;;;8.48;4.68;;;20.10;96.10;;;;;;6241192;23;20038;-79
2023/09/30 12:21:41;;;;;;;10.88;3.85;;;20.10;96.20;;;;;;6241185;23;20084;-78
2023/09/30 12:24:09;;;;;;;8.38;2.88;;;20.00;96.10;;;;;;6241191;23;20053;-78
2023/09/30 12:26:36;;;;;;;7.90;3.28;;;20.00;96.20;;;;;;6241295;23;20455;-78
2023/09/30 12:29:01;;;;;;;5.50;1.88;;;19.90;96.10;;;;;;6240448;23;20070;-78
2023/09/30 12:31:27;;;;;;;13.30;2.58;;;19.80;95.90;;;;;;6214352;23;20212;-78
2023/09/30 12:33:53;;;;;;;7.20;2.58;;;19.70;95.80;;;;;;6240554;23;20111;-78
2023/09/30 12:36:19;;;;;;;8.00;3.20;;;19.70;95.70;;;;;;6213576;23;20032;-78
2023/09/30 12:38:45;;;;;;;6.40;2.58;;;19.70;95.70;;;;;;6241173;23;20015;-78
2023/09/30 12:41:11;;;;;;;8.05;3.05;;;19.70;95.70;;;;;;6240796;23;20012;-78
2023/09/30 12:43:37;;;;;;;7.07;2.58;;;19.70;95.70;;;;;;6240905;23;20012;-78
2023/09/30 12:46:04;;;;;;;5.55;2.40;;;19.60;95.70;;;;;;6240595;23;20065;-78
2023/09/30 12:48:30;;;;;;;9.32;2.85;;;19.60;95.70;;;;;;6213902;23;20087;-78
2023/09/30 12:50:55;;;;;;;7.95;2.22;;;19.60;95.60;;;;;;6240638;23;20081;-78
2023/09/30 12:53:21;;;;;;;5.15;2.83;;;19.50;95.70;;;;;;6214343;23;20001;-80
2023/09/30 12:55:47;;;;;;;6.82;2.92;;;19.50;95.60;;;;;;6240799;23;20000;-79
2023/09/30 12:58:12;;;;;;;9.85;2.55;;;19.40;95.70;;;;;;6240123;23;20057;-78
2023/09/30 13:00:38;;;;;;;8.15;2.90;;;19.40;95.70;;;;;;6241002;23;20000;-78
2023/09/30 13:03:04;;;;;;;8.30;3.30;;;19.50;95.70;;;;;;6240880;23;20480;-78
2023/09/30 13:05:29;;;;;;;9.77;3.30;;;19.50;95.80;;;;;;6240935;23;20031;-78
2023/09/30 13:07:56;;;;;;;5.72;2.45;;;19.50;95.70;;;;;;6240854;23;19996;-78
2023/09/30 13:10:22;;;;;;;6.60;2.80;;;19.50;95.70;;;;;;6238210;23;20011;-78
2023/09/30 13:12:49;;;;;;;6.25;2.35;;;19.50;95.50;;;;;;6211093;23;20005;-78
2023/09/30 13:15:15;;;;;;;7.75;2.97;;;19.40;95.50;;;;;;6212775;23;20000;-78
2023/09/30 13:17:43;;;;;;;9.30;3.65;;;19.50;95.60;;;;;;6239536;23;20050;-79
2023/09/30 13:20:09;;;;;;;9.98;4.03;;;19.40;95.60;;;;;;6213503;23;20425;-78
2023/09/30 13:22:38;;;;;;;9.88;3.97;;;19.40;95.60;;;;;;6240477;23;20007;-78
2023/09/30 13:25:08;;;;;;;7.82;3.25;;;19.50;95.80;;;;;;6240603;23;20023;-78